sensor_id;sensor_type;location;lat;lon;timestamp;P1;durP1;ratioP1;P2;durP2;ratioP2
14342;SDS011;7255;53.596;9.960;2023-04-05T00:01:11;12.50;;;9.77;;
14342;SDS011;7255;53.596;9.960;2023-04-05T00:03:38;13.77;;;9.80;;
14342;SDS011;7255;53.596;9.960;2023-04-05T00:06:05;11.63;;;8.60;;
14342;SDS011;7255;53.596;9.960;2023-04-05T00:08:32;11.90;;;9.50;;
14342;SDS011;7255;53.596;9.960;2023-04-05T00:10:58;10.53;;;9.23;;
14342;SDS011;7255;53.596;9.960;2023-04-05T00:13:26;10.13;;;9.13;;
14342;SDS011;7255;53.596;9.960;2023-04-05T00:15:52;11.83;;;9.77;;
14342;SDS011;7255;53.596;9.960;2023-04-05T00:18:21;10.70;;;9.60;;
14342;SDS011;7255;53.596;9.960;2023-04-05T00:20:48;12.50;;;8.97;;
14342;SDS011;7255;53.596;9.960;2023-04-05T00:23:15;11.43;;;8.93;;
14342;SDS011;7255;53.596;9.960;2023-04-05T00:25:41;11.07;;;9.67;;
14342;SDS011;7255;53.596;9.960;2023-04-05T00:28:08;10.90;;;9.80;;
14342;SDS011;7255;53.596;9.960;2023-04-05T00:30:36;12.37;;;9.60;;
14342;SDS011;7255;53.596;9.960;2023-04-05T00:33:02;13.33;;;9.63;;
14342;SDS011;7255;53.596;9.960;2023-04-05T00:35:29;12.73;;;9.67;;
14342;SDS011;7255;53.596;9.960;2023-04-05T00:37:55;11.90;;;9.50;;
14342;SDS011;7255;53.596;9.960;2023-04-05T00:40:22;15.30;;;10.13;;
14342;SDS011;7255;53.596;9.960;2023-04-05T00:42:48;11.23;;;9.23;;
14342;SDS011;7255;53.596;9.960;2023-04-05T00:45:15;10.33;;;9.27;;
14342;SDS011;7255;53.596;9.960;2023-04-05T00:47:43;14.17;;;9.90;;
14342;SDS011;7255;53.596;9.960;2023-04-05T00:50:10;11.73;;;9.83;;
14342;SDS011;7255;53.596;9.960;2023-04-05T00:52:37;11.83;;;10.20;;
14342;SDS011;7255;53.596;9.960;2023-04-05T00:55:04;11.87;;;9.60;;
14342;SDS011;7255;53.596;9.960;2023-04-05T00:57:33;12.80;;;10.23;;
14342;SDS011;7255;53.596;9.960;2023-04-05T01:00:03;12.07;;;9.37;;
14342;SDS011;7255;53.596;9.960;2023-04-05T01:02:34;10.47;;;9.17;;
14342;SDS011;7255;53.596;9.960;2023-04-05T01:05:07;14.53;;;9.70;;
14342;SDS011;7255;53.596;9.960;2023-04-05T01:07:37;11.73;;;8.53;;
14342;SDS011;7255;53.596;9.960;2023-04-05T01:10:16;10.13;;;9.07;;
14342;SDS011;7255;53.596;9.960;2023-04-05T01:12:47;12.53;;;8.53;;
14342;SDS011;7255;53.596;9.960;2023-04-05T01:15:14;12.20;;;8.33;;
14342;SDS011;7255;53.596;9.960;2023-04-05T01:17:42;9.70;;;8.57;;
14342;SDS011;7255;53.596;9.960;2023-04-05T01:20:12;11.90;;;9.23;;
14342;SDS011;7255;53.596;9.960;2023-04-05T01:22:47;9.83;;;8.83;;
14342;SDS011;7255;53.596;9.960;2023-04-05T01:25:55;11.20;;;9.03;;
14342;SDS011;7255;53.596;9.960;2023-04-05T01:28:39;12.40;;;8.70;;
14342;SDS011;7255;53.596;9.960;2023-04-05T01:31:24;9.93;;;8.80;;
14342;SDS011;7255;53.596;9.960;2023-04-05T01:33:58;9.53;;;8.53;;
14342;SDS011;7255;53.596;9.960;2023-04-05T01:36:32;12.43;;;9.20;;
14342;SDS011;7255;53.596;9.960;2023-04-05T01:39:04;14.30;;;9.50;;
14342;SDS011;7255;53.596;9.960;2023-04-05T01:41:33;10.87;;;9.77;;
14342;SDS011;7255;53.596;9.960;2023-04-05T01:44:00;11.67;;;9.63;;
14342;SDS011;7255;53.596;9.960;2023-04-05T01:46:27;10.80;;;9.00;;
14342;SDS011;7255;53.596;9.960;2023-04-05T01:48:54;12.63;;;9.53;;
14342;SDS011;7255;53.596;9.960;2023-04-05T01:51:21;10.87;;;8.50;;
14342;SDS011;7255;53.596;9.960;2023-04-05T01:53:47;11.23;;;9.00;;
14342;SDS011;7255;53.596;9.960;2023-04-05T01:56:13;11.27;;;9.33;;
14342;SDS011;7255;53.596;9.960;2023-04-05T01:58:40;14.50;;;9.70;;
14342;SDS011;7255;53.596;9.960;2023-04-05T02:01:06;10.50;;;8.83;;
14342;SDS011;7255;53.596;9.960;2023-04-05T02:03:34;9.43;;;8.43;;
14342;SDS011;7255;53.596;9.960;2023-04-05T02:06:00;11.07;;;8.97;;
14342;SDS011;7255;53.596;9.960;2023-04-05T02:08:27;13.50;;;9.13;;
14342;SDS011;7255;53.596;9.960;2023-04-05T02:10:53;12.27;;;10.20;;
14342;SDS011;7255;53.596;9.960;2023-04-05T02:13:20;11.57;;;8.97;;
14342;SDS011;7255;53.596;9.960;2023-04-05T02:15:46;16.20;;;8.80;;
14342;SDS011;7255;53.596;9.960;2023-04-05T02:18:14;12.33;;;9.07;;
14342;SDS011;7255;53.596;9.960;2023-04-05T02:20:41;12.80;;;9.10;;
14342;SDS011;7255;53.596;9.960;2023-04-05T02:23:08;11.03;;;8.40;;
14342;SDS011;7255;53.596;9.960;2023-04-05T02:25:34;9.83;;;7.70;;
14342;SDS011;7255;53.596;9.960;2023-04-05T02:28:01;9.17;;;8.17;;
14342;SDS011;7255;53.596;9.960;2023-04-05T02:30:27;12.20;;;8.43;;
14342;SDS011;7255;53.596;9.960;2023-04-05T02:32:53;9.00;;;7.97;;
14342;SDS011;7255;53.596;9.960;2023-04-05T02:35:21;11.97;;;8.47;;
14342;SDS011;7255;53.596;9.960;2023-04-05T02:37:48;12.63;;;8.47;;
14342;SDS011;7255;53.596;9.960;2023-04-05T02:40:15;12.17;;;8.60;;
14342;SDS011;7255;53.596;9.960;2023-04-05T02:42:41;9.57;;;8.47;;
14342;SDS011;7255;53.596;9.960;2023-04-05T02:45:08;11.07;;;8.67;;
14342;SDS011;7255;53.596;9.960;2023-04-05T02:47:34;13.10;;;8.43;;
14342;SDS011;7255;53.596;9.960;2023-04-05T02:50:01;9.43;;;7.73;;
14342;SDS011;7255;53.596;9.960;2023-04-05T02:52:27;9.13;;;8.17;;
14342;SDS011;7255;53.596;9.960;2023-04-05T02:54:55;12.17;;;7.73;;
14342;SDS011;7255;53.596;9.960;2023-04-05T02:57:21;9.03;;;7.60;;
14342;SDS011;7255;53.596;9.960;2023-04-05T02:59:47;7.87;;;7.07;;
14342;SDS011;7255;53.596;9.960;2023-04-05T03:02:13;9.17;;;7.53;;
14342;SDS011;7255;53.596;9.960;2023-04-05T03:04:40;9.73;;;7.23;;
14342;SDS011;7255;53.596;9.960;2023-04-05T03:07:08;13.17;;;7.73;;
14342;SDS011;7255;53.596;9.960;2023-04-05T03:09:38;9.97;;;7.23;;
14342;SDS011;7255;53.596;9.960;2023-04-05T03:12:06;9.90;;;7.73;;
14342;SDS011;7255;53.596;9.960;2023-04-05T03:14:32;9.03;;;7.43;;
14342;SDS011;7255;53.596;9.960;2023-04-05T03:16:59;9.67;;;7.83;;
14342;SDS011;7255;53.596;9.960;2023-04-05T03:19:25;9.37;;;7.57;;
14342;SDS011;7255;53.596;9.960;2023-04-05T03:21:52;8.20;;;7.40;;
14342;SDS011;7255;53.596;9.960;2023-04-05T03:24:18;10.27;;;7.77;;
14342;SDS011;7255;53.596;9.960;2023-04-05T03:26:45;13.17;;;8.00;;
14342;SDS011;7255;53.596;9.960;2023-04-05T03:29:14;10.30;;;7.80;;
14342;SDS011;7255;53.596;9.960;2023-04-05T03:31:41;10.17;;;7.83;;
14342;SDS011;7255;53.596;9.960;2023-04-05T03:34:07;11.80;;;7.40;;
14342;SDS011;7255;53.596;9.960;2023-04-05T03:36:34;10.90;;;7.40;;
14342;SDS011;7255;53.596;9.960;2023-04-05T03:39:06;9.77;;;7.30;;
14342;SDS011;7255;53.596;9.960;2023-04-05T03:41:33;8.77;;;7.60;;
14342;SDS011;7255;53.596;9.960;2023-04-05T03:43:59;7.70;;;6.90;;
14342;SDS011;7255;53.596;9.960;2023-04-05T03:46:27;14.13;;;7.87;;
14342;SDS011;7255;53.596;9.960;2023-04-05T03:48:54;8.40;;;6.87;;
14342;SDS011;7255;53.596;9.960;2023-04-05T03:51:21;8.23;;;7.13;;
14342;SDS011;7255;53.596;9.960;2023-04-05T03:53:48;8.03;;;7.20;;
14342;SDS011;7255;53.596;9.960;2023-04-05T03:56:14;11.50;;;8.23;;
14342;SDS011;7255;53.596;9.960;2023-04-05T03:58:40;8.07;;;7.13;;
14342;SDS011;7255;53.596;9.960;2023-04-05T04:01:07;9.10;;;7.47;;
14342;SDS011;7255;53.596;9.960;2023-04-05T04:03:35;8.37;;;7.30;;
14342;SDS011;7255;53.596;9.960;2023-04-05T04:06:02;9.10;;;7.73;;
14342;SDS011;7255;53.596;9.960;2023-04-05T04:08:28;9.63;;;7.33;;
14342;SDS011;7255;53.596;9.960;2023-04-05T04:10:54;8.80;;;7.90;;
14342;SDS011;7255;53.596;9.960;2023-04-05T04:13:21;12.97;;;8.47;;
14342;SDS011;7255;53.596;9.960;2023-04-05T04:15:47;11.07;;;8.30;;
14342;SDS011;7255;53.596;9.960;2023-04-05T04:18:13;13.70;;;7.93;;
14342;SDS011;7255;53.596;9.960;2023-04-05T04:20:41;10.47;;;8.03;;
14342;SDS011;7255;53.596;9.960;2023-04-05T04:23:08;10.53;;;7.83;;
14342;SDS011;7255;53.596;9.960;2023-04-05T04:25:35;8.97;;;7.83;;
14342;SDS011;7255;53.596;9.960;2023-04-05T04:28:01;9.83;;;7.83;;
14342;SDS011;7255;53.596;9.960;2023-04-05T04:30:30;9.00;;;7.60;;
14342;SDS011;7255;53.596;9.960;2023-04-05T04:32:58;10.70;;;8.13;;
14342;SDS011;7255;53.596;9.960;2023-04-05T04:35:29;10.00;;;7.30;;
14342;SDS011;7255;53.596;9.960;2023-04-05T04:38:00;10.13;;;8.33;;
14342;SDS011;7255;53.596;9.960;2023-04-05T04:40:28;9.07;;;8.17;;
14342;SDS011;7255;53.596;9.960;2023-04-05T04:42:56;13.30;;;7.97;;
14342;SDS011;7255;53.596;9.960;2023-04-05T04:45:24;9.17;;;7.37;;
14342;SDS011;7255;53.596;9.960;2023-04-05T04:47:50;11.80;;;8.13;;
14342;SDS011;7255;53.596;9.960;2023-04-05T04:50:18;10.50;;;7.90;;
14342;SDS011;7255;53.596;9.960;2023-04-05T04:52:45;12.07;;;8.20;;
14342;SDS011;7255;53.596;9.960;2023-04-05T04:55:13;10.37;;;7.63;;
14342;SDS011;7255;53.596;9.960;2023-04-05T04:57:39;14.33;;;8.57;;
14342;SDS011;7255;53.596;9.960;2023-04-05T05:00:07;11.20;;;8.10;;
14342;SDS011;7255;53.596;9.960;2023-04-05T05:02:37;10.53;;;7.97;;
14342;SDS011;7255;53.596;9.960;2023-04-05T05:05:04;10.57;;;8.33;;
14342;SDS011;7255;53.596;9.960;2023-04-05T05:07:31;9.87;;;7.83;;
14342;SDS011;7255;53.596;9.960;2023-04-05T05:09:57;8.40;;;7.37;;
14342;SDS011;7255;53.596;9.960;2023-04-05T05:12:25;8.60;;;7.70;;
14342;SDS011;7255;53.596;9.960;2023-04-05T05:14:51;13.27;;;8.60;;
14342;SDS011;7255;53.596;9.960;2023-04-05T05:17:18;11.00;;;8.53;;
14342;SDS011;7255;53.596;9.960;2023-04-05T05:19:44;12.40;;;8.63;;
14342;SDS011;7255;53.596;9.960;2023-04-05T05:22:11;14.33;;;7.97;;
14342;SDS011;7255;53.596;9.960;2023-04-05T05:24:37;10.00;;;8.30;;
14342;SDS011;7255;53.596;9.960;2023-04-05T05:27:03;12.40;;;8.00;;
14342;SDS011;7255;53.596;9.960;2023-04-05T05:29:31;10.30;;;7.80;;
14342;SDS011;7255;53.596;9.960;2023-04-05T05:31:57;10.30;;;8.60;;
14342;SDS011;7255;53.596;9.960;2023-04-05T05:34:23;14.20;;;8.00;;
14342;SDS011;7255;53.596;9.960;2023-04-05T05:36:50;10.97;;;8.67;;
14342;SDS011;7255;53.596;9.960;2023-04-05T05:39:17;13.23;;;8.50;;
14342;SDS011;7255;53.596;9.960;2023-04-05T05:41:44;9.20;;;7.47;;
14342;SDS011;7255;53.596;9.960;2023-04-05T05:44:10;13.23;;;7.50;;
14342;SDS011;7255;53.596;9.960;2023-04-05T05:46:38;15.90;;;9.13;;
14342;SDS011;7255;53.596;9.960;2023-04-05T05:49:04;13.47;;;8.00;;
14342;SDS011;7255;53.596;9.960;2023-04-05T05:51:31;16.97;;;8.47;;
14342;SDS011;7255;53.596;9.960;2023-04-05T05:53:57;12.03;;;9.07;;
14342;SDS011;7255;53.596;9.960;2023-04-05T05:56:23;8.70;;;7.43;;
14342;SDS011;7255;53.596;9.960;2023-04-05T05:58:50;13.03;;;8.50;;
14342;SDS011;7255;53.596;9.960;2023-04-05T06:01:16;15.47;;;8.90;;
14342;SDS011;7255;53.596;9.960;2023-04-05T06:03:48;14.70;;;9.03;;
14342;SDS011;7255;53.596;9.960;2023-04-05T06:06:15;15.73;;;8.73;;
14342;SDS011;7255;53.596;9.960;2023-04-05T06:08:41;11.93;;;8.20;;
14342;SDS011;7255;53.596;9.960;2023-04-05T06:11:15;10.90;;;9.27;;
14342;SDS011;7255;53.596;9.960;2023-04-05T06:13:42;13.80;;;8.80;;
14342;SDS011;7255;53.596;9.960;2023-04-05T06:16:08;13.37;;;8.67;;
14342;SDS011;7255;53.596;9.960;2023-04-05T06:18:34;14.60;;;7.73;;
14342;SDS011;7255;53.596;9.960;2023-04-05T06:21:02;12.90;;;7.67;;
14342;SDS011;7255;53.596;9.960;2023-04-05T06:23:28;16.93;;;7.20;;
14342;SDS011;7255;53.596;9.960;2023-04-05T06:25:55;14.63;;;7.30;;
14342;SDS011;7255;53.596;9.960;2023-04-05T06:28:21;12.23;;;7.43;;
14342;SDS011;7255;53.596;9.960;2023-04-05T06:30:48;19.27;;;7.80;;
14342;SDS011;7255;53.596;9.960;2023-04-05T06:33:14;13.63;;;6.77;;
14342;SDS011;7255;53.596;9.960;2023-04-05T06:35:40;18.57;;;7.67;;
14342;SDS011;7255;53.596;9.960;2023-04-05T06:38:08;13.60;;;8.30;;
14342;SDS011;7255;53.596;9.960;2023-04-05T06:40:34;13.33;;;7.37;;
14342;SDS011;7255;53.596;9.960;2023-04-05T06:43:01;16.03;;;7.57;;
14342;SDS011;7255;53.596;9.960;2023-04-05T06:45:27;9.57;;;5.83;;
14342;SDS011;7255;53.596;9.960;2023-04-05T06:47:53;12.77;;;5.50;;
14342;SDS011;7255;53.596;9.960;2023-04-05T06:50:20;9.67;;;5.13;;
14342;SDS011;7255;53.596;9.960;2023-04-05T06:52:46;13.13;;;4.27;;
14342;SDS011;7255;53.596;9.960;2023-04-05T06:55:14;8.53;;;4.60;;
14342;SDS011;7255;53.596;9.960;2023-04-05T06:57:40;7.50;;;4.97;;
14342;SDS011;7255;53.596;9.960;2023-04-05T07:00:07;5.93;;;3.77;;
14342;SDS011;7255;53.596;9.960;2023-04-05T07:02:35;10.63;;;4.00;;
14342;SDS011;7255;53.596;9.960;2023-04-05T07:05:02;6.03;;;3.60;;
14342;SDS011;7255;53.596;9.960;2023-04-05T07:07:29;10.80;;;4.07;;
14342;SDS011;7255;53.596;9.960;2023-04-05T07:09:56;5.53;;;4.47;;
14342;SDS011;7255;53.596;9.960;2023-04-05T07:12:24;8.13;;;3.37;;
14342;SDS011;7255;53.596;9.960;2023-04-05T07:14:50;3.40;;;3.10;;
14342;SDS011;7255;53.596;9.960;2023-04-05T07:17:16;6.97;;;3.67;;
14342;SDS011;7255;53.596;9.960;2023-04-05T07:19:43;9.00;;;3.67;;
14342;SDS011;7255;53.596;9.960;2023-04-05T07:22:09;5.50;;;3.63;;
14342;SDS011;7255;53.596;9.960;2023-04-05T07:24:37;4.50;;;3.37;;
14342;SDS011;7255;53.596;9.960;2023-04-05T07:27:03;6.13;;;4.30;;
14342;SDS011;7255;53.596;9.960;2023-04-05T07:29:31;7.77;;;3.47;;
14342;SDS011;7255;53.596;9.960;2023-04-05T07:31:58;4.30;;;3.90;;
14342;SDS011;7255;53.596;9.960;2023-04-05T07:34:25;6.67;;;4.33;;
14342;SDS011;7255;53.596;9.960;2023-04-05T07:36:51;6.80;;;4.20;;
14342;SDS011;7255;53.596;9.960;2023-04-05T07:39:17;7.07;;;4.57;;
14342;SDS011;7255;53.596;9.960;2023-04-05T07:41:45;3.83;;;3.50;;
14342;SDS011;7255;53.596;9.960;2023-04-05T07:44:11;4.57;;;3.80;;
14342;SDS011;7255;53.596;9.960;2023-04-05T07:46:39;6.10;;;4.40;;
14342;SDS011;7255;53.596;9.960;2023-04-05T07:49:08;8.33;;;4.23;;
14342;SDS011;7255;53.596;9.960;2023-04-05T07:51:35;9.30;;;4.90;;
14342;SDS011;7255;53.596;9.960;2023-04-05T07:54:02;4.83;;;3.60;;
14342;SDS011;7255;53.596;9.960;2023-04-05T07:56:29;7.07;;;4.53;;
14342;SDS011;7255;53.596;9.960;2023-04-05T07:58:56;6.37;;;4.50;;
14342;SDS011;7255;53.596;9.960;2023-04-05T08:01:22;6.83;;;4.13;;
14342;SDS011;7255;53.596;9.960;2023-04-05T08:03:53;4.70;;;4.20;;
14342;SDS011;7255;53.596;9.960;2023-04-05T08:06:21;7.50;;;3.90;;
14342;SDS011;7255;53.596;9.960;2023-04-05T08:08:48;6.20;;;3.90;;
14342;SDS011;7255;53.596;9.960;2023-04-05T08:11:15;6.87;;;3.80;;
14342;SDS011;7255;53.596;9.960;2023-04-05T08:13:41;6.17;;;3.90;;
14342;SDS011;7255;53.596;9.960;2023-04-05T08:16:08;4.07;;;3.60;;
14342;SDS011;7255;53.596;9.960;2023-04-05T08:18:35;5.90;;;3.63;;
14342;SDS011;7255;53.596;9.960;2023-04-05T08:21:03;6.50;;;4.60;;
14342;SDS011;7255;53.596;9.960;2023-04-05T08:23:30;7.17;;;3.73;;
14342;SDS011;7255;53.596;9.960;2023-04-05T08:25:56;5.60;;;3.33;;
14342;SDS011;7255;53.596;9.960;2023-04-05T08:28:23;5.50;;;3.77;;
14342;SDS011;7255;53.596;9.960;2023-04-05T08:30:51;4.00;;;3.50;;
14342;SDS011;7255;53.596;9.960;2023-04-05T08:33:18;4.80;;;3.00;;
14342;SDS011;7255;53.596;9.960;2023-04-05T08:35:44;6.63;;;3.40;;
14342;SDS011;7255;53.596;9.960;2023-04-05T08:38:12;5.67;;;3.30;;
14342;SDS011;7255;53.596;9.960;2023-04-05T08:40:39;6.70;;;3.70;;
14342;SDS011;7255;53.596;9.960;2023-04-05T08:43:09;4.90;;;3.77;;
14342;SDS011;7255;53.596;9.960;2023-04-05T08:45:38;5.07;;;3.40;;
14342;SDS011;7255;53.596;9.960;2023-04-05T08:48:11;6.33;;;3.57;;
14342;SDS011;7255;53.596;9.960;2023-04-05T08:50:37;4.23;;;3.37;;
14342;SDS011;7255;53.596;9.960;2023-04-05T08:53:05;5.23;;;3.50;;
14342;SDS011;7255;53.596;9.960;2023-04-05T08:55:35;5.90;;;4.03;;
14342;SDS011;7255;53.596;9.960;2023-04-05T08:58:02;4.17;;;3.60;;
14342;SDS011;7255;53.596;9.960;2023-04-05T09:00:34;7.73;;;3.70;;
14342;SDS011;7255;53.596;9.960;2023-04-05T09:03:01;5.43;;;4.33;;
14342;SDS011;7255;53.596;9.960;2023-04-05T09:05:29;4.80;;;3.83;;
14342;SDS011;7255;53.596;9.960;2023-04-05T09:07:56;4.73;;;3.97;;
14342;SDS011;7255;53.596;9.960;2023-04-05T09:10:23;5.70;;;4.37;;
14342;SDS011;7255;53.596;9.960;2023-04-05T09:12:52;5.17;;;3.97;;
14342;SDS011;7255;53.596;9.960;2023-04-05T09:15:18;5.03;;;4.20;;
14342;SDS011;7255;53.596;9.960;2023-04-05T09:17:48;4.00;;;3.60;;
14342;SDS011;7255;53.596;9.960;2023-04-05T09:20:15;7.70;;;3.90;;
14342;SDS011;7255;53.596;9.960;2023-04-05T09:22:42;5.60;;;3.90;;
14342;SDS011;7255;53.596;9.960;2023-04-05T09:25:09;6.30;;;3.93;;
14342;SDS011;7255;53.596;9.960;2023-04-05T09:27:37;6.40;;;4.00;;
14342;SDS011;7255;53.596;9.960;2023-04-05T09:30:21;3.70;;;3.33;;
14342;SDS011;7255;53.596;9.960;2023-04-05T09:32:49;4.90;;;3.93;;
14342;SDS011;7255;53.596;9.960;2023-04-05T09:35:17;4.87;;;3.83;;
14342;SDS011;7255;53.596;9.960;2023-04-05T09:37:49;6.67;;;3.77;;
14342;SDS011;7255;53.596;9.960;2023-04-05T09:40:17;8.13;;;3.60;;
14342;SDS011;7255;53.596;9.960;2023-04-05T09:42:43;5.07;;;4.20;;
14342;SDS011;7255;53.596;9.960;2023-04-05T09:45:12;4.97;;;3.97;;
14342;SDS011;7255;53.596;9.960;2023-04-05T09:47:39;4.07;;;3.40;;
14342;SDS011;7255;53.596;9.960;2023-04-05T09:50:16;5.57;;;4.17;;
14342;SDS011;7255;53.596;9.960;2023-04-05T09:52:43;7.37;;;3.40;;
14342;SDS011;7255;53.596;9.960;2023-04-05T09:55:10;5.03;;;3.57;;
14342;SDS011;7255;53.596;9.960;2023-04-05T09:57:38;6.20;;;4.10;;
14342;SDS011;7255;53.596;9.960;2023-04-05T10:00:05;4.10;;;3.60;;
14342;SDS011;7255;53.596;9.960;2023-04-05T10:02:43;5.07;;;3.83;;
14342;SDS011;7255;53.596;9.960;2023-04-05T10:05:11;7.17;;;4.37;;
14342;SDS011;7255;53.596;9.960;2023-04-05T10:07:39;4.33;;;3.70;;
14342;SDS011;7255;53.596;9.960;2023-04-05T10:10:07;7.13;;;3.67;;
14342;SDS011;7255;53.596;9.960;2023-04-05T10:12:36;5.60;;;3.77;;
14342;SDS011;7255;53.596;9.960;2023-04-05T10:15:05;5.00;;;3.83;;
14342;SDS011;7255;53.596;9.960;2023-04-05T10:17:33;4.20;;;3.70;;
14342;SDS011;7255;53.596;9.960;2023-04-05T10:20:08;4.05;;;3.75;;
14342;SDS011;7255;53.596;9.960;2023-04-05T10:22:40;4.50;;;4.10;;
14342;SDS011;7255;53.596;9.960;2023-04-05T10:25:17;4.20;;;3.80;;
14342;SDS011;7255;53.596;9.960;2023-04-05T10:27:52;5.70;;;3.67;;
14342;SDS011;7255;53.596;9.960;2023-04-05T10:30:19;5.53;;;3.73;;
14342;SDS011;7255;53.596;9.960;2023-04-05T10:32:52;4.82;;;4.32;;
14342;SDS011;7255;53.596;9.960;2023-04-05T10:35:30;4.70;;;3.77;;
14342;SDS011;7255;53.596;9.960;2023-04-05T10:38:11;6.87;;;4.00;;
14342;SDS011;7255;53.596;9.960;2023-04-05T10:40:44;6.60;;;3.83;;
14342;SDS011;7255;53.596;9.960;2023-04-05T10:43:14;4.75;;;4.03;;
14342;SDS011;7255;53.596;9.960;2023-04-05T10:45:44;4.93;;;3.53;;
14342;SDS011;7255;53.596;9.960;2023-04-05T10:48:15;4.30;;;3.78;;
14342;SDS011;7255;53.596;9.960;2023-04-05T10:50:50;6.75;;;3.90;;
14342;SDS011;7255;53.596;9.960;2023-04-05T10:53:17;4.53;;;3.70;;
14342;SDS011;7255;53.596;9.960;2023-04-05T10:55:45;4.97;;;4.28;;
14342;SDS011;7255;53.596;9.960;2023-04-05T10:58:14;6.82;;;4.53;;
14342;SDS011;7255;53.596;9.960;2023-04-05T11:00:41;4.55;;;3.75;;
14342;SDS011;7255;53.596;9.960;2023-04-05T11:03:08;4.75;;;3.97;;
14342;SDS011;7255;53.596;9.960;2023-04-05T11:05:35;5.05;;;3.87;;
14342;SDS011;7255;53.596;9.960;2023-04-05T11:08:04;4.25;;;3.83;;
14342;SDS011;7255;53.596;9.960;2023-04-05T11:10:32;5.55;;;3.95;;
14342;SDS011;7255;53.596;9.960;2023-04-05T11:13:02;4.18;;;3.65;;
14342;SDS011;7255;53.596;9.960;2023-04-05T11:15:33;5.05;;;3.47;;
14342;SDS011;7255;53.596;9.960;2023-04-05T11:18:01;5.20;;;3.72;;
14342;SDS011;7255;53.596;9.960;2023-04-05T11:20:38;4.78;;;3.50;;
14342;SDS011;7255;53.596;9.960;2023-04-05T11:23:07;4.40;;;3.58;;
14342;SDS011;7255;53.596;9.960;2023-04-05T11:25:36;5.43;;;3.90;;
14342;SDS011;7255;53.596;9.960;2023-04-05T11:28:04;4.35;;;3.53;;
14342;SDS011;7255;53.596;9.960;2023-04-05T11:30:46;4.28;;;3.42;;
14342;SDS011;7255;53.596;9.960;2023-04-05T11:36:01;4.43;;;3.60;;
14342;SDS011;7255;53.596;9.960;2023-04-05T11:38:30;4.55;;;3.42;;
14342;SDS011;7255;53.596;9.960;2023-04-05T11:41:06;4.05;;;3.40;;
14342;SDS011;7255;53.596;9.960;2023-04-05T11:43:37;4.40;;;2.87;;
14342;SDS011;7255;53.596;9.960;2023-04-05T11:46:03;4.70;;;3.67;;
14342;SDS011;7255;53.596;9.960;2023-04-05T11:48:30;5.32;;;3.83;;
14342;SDS011;7255;53.596;9.960;2023-04-05T11:50:56;4.05;;;3.37;;
14342;SDS011;7255;53.596;9.960;2023-04-05T11:53:23;4.00;;;3.55;;
14342;SDS011;7255;53.596;9.960;2023-04-05T11:55:50;4.20;;;2.85;;
14342;SDS011;7255;53.596;9.960;2023-04-05T11:58:17;3.37;;;3.08;;
14342;SDS011;7255;53.596;9.960;2023-04-05T12:00:46;4.15;;;2.92;;
14342;SDS011;7255;53.596;9.960;2023-04-05T12:03:22;4.15;;;3.28;;
14342;SDS011;7255;53.596;9.960;2023-04-05T12:05:50;4.70;;;3.03;;
14342;SDS011;7255;53.596;9.960;2023-04-05T12:08:17;5.15;;;3.20;;
14342;SDS011;7255;53.596;9.960;2023-04-05T12:10:43;4.62;;;3.37;;
14342;SDS011;7255;53.596;9.960;2023-04-05T12:13:26;4.35;;;3.42;;
14342;SDS011;7255;53.596;9.960;2023-04-05T12:15:53;3.65;;;3.28;;
14342;SDS011;7255;53.596;9.960;2023-04-05T12:18:23;4.50;;;3.20;;
14342;SDS011;7255;53.596;9.960;2023-04-05T12:20:50;3.60;;;3.03;;
14342;SDS011;7255;53.596;9.960;2023-04-05T12:23:16;5.85;;;3.35;;
14342;SDS011;7255;53.596;9.960;2023-04-05T12:25:44;4.93;;;3.47;;
14342;SDS011;7255;53.596;9.960;2023-04-05T12:28:13;4.12;;;3.45;;
14342;SDS011;7255;53.596;9.960;2023-04-05T12:30:47;5.82;;;3.78;;
14342;SDS011;7255;53.596;9.960;2023-04-05T12:33:13;6.37;;;3.95;;
14342;SDS011;7255;53.596;9.960;2023-04-05T12:35:40;4.90;;;3.65;;
14342;SDS011;7255;53.596;9.960;2023-04-05T12:38:06;4.85;;;4.40;;
14342;SDS011;7255;53.596;9.960;2023-04-05T12:40:34;5.60;;;4.45;;
14342;SDS011;7255;53.596;9.960;2023-04-05T12:43:02;5.97;;;4.68;;
14342;SDS011;7255;53.596;9.960;2023-04-05T12:45:31;6.40;;;4.65;;
14342;SDS011;7255;53.596;9.960;2023-04-05T12:48:06;5.55;;;4.15;;
14342;SDS011;7255;53.596;9.960;2023-04-05T12:50:33;5.32;;;4.37;;
14342;SDS011;7255;53.596;9.960;2023-04-05T12:53:00;5.22;;;4.28;;
14342;SDS011;7255;53.596;9.960;2023-04-05T12:55:31;4.20;;;3.87;;
14342;SDS011;7255;53.596;9.960;2023-04-05T12:58:03;4.10;;;3.70;;
14342;SDS011;7255;53.596;9.960;2023-04-05T13:00:31;5.55;;;4.20;;
14342;SDS011;7255;53.596;9.960;2023-04-05T13:02:58;4.45;;;3.97;;
14342;SDS011;7255;53.596;9.960;2023-04-05T13:05:25;4.35;;;3.95;;
14342;SDS011;7255;53.596;9.960;2023-04-05T13:07:52;4.60;;;4.20;;
14342;SDS011;7255;53.596;9.960;2023-04-05T13:10:19;4.93;;;4.18;;
14342;SDS011;7255;53.596;9.960;2023-04-05T13:12:46;5.22;;;3.75;;
14342;SDS011;7255;53.596;9.960;2023-04-05T13:15:13;4.85;;;4.03;;
14342;SDS011;7255;53.596;9.960;2023-04-05T13:17:41;4.78;;;3.90;;
14342;SDS011;7255;53.596;9.960;2023-04-05T13:20:09;5.85;;;3.72;;
14342;SDS011;7255;53.596;9.960;2023-04-05T13:22:36;4.03;;;3.62;;
14342;SDS011;7255;53.596;9.960;2023-04-05T13:25:03;5.75;;;4.03;;
14342;SDS011;7255;53.596;9.960;2023-04-05T13:27:29;5.32;;;4.40;;
14342;SDS011;7255;53.596;9.960;2023-04-05T13:29:56;5.20;;;4.00;;
14342;SDS011;7255;53.596;9.960;2023-04-05T13:32:22;6.53;;;4.28;;
14342;SDS011;7255;53.596;9.960;2023-04-05T13:34:50;4.90;;;4.40;;
14342;SDS011;7255;53.596;9.960;2023-04-05T13:37:16;4.70;;;4.20;;
14342;SDS011;7255;53.596;9.960;2023-04-05T13:39:42;5.53;;;3.70;;
14342;SDS011;7255;53.596;9.960;2023-04-05T13:42:09;4.90;;;4.32;;
14342;SDS011;7255;53.596;9.960;2023-04-05T13:44:36;4.75;;;4.30;;
14342;SDS011;7255;53.596;9.960;2023-04-05T13:47:03;5.45;;;4.87;;
14342;SDS011;7255;53.596;9.960;2023-04-05T13:49:29;5.22;;;4.05;;
14342;SDS011;7255;53.596;9.960;2023-04-05T13:51:57;5.47;;;4.20;;
14342;SDS011;7255;53.596;9.960;2023-04-05T13:54:23;5.00;;;4.50;;
14342;SDS011;7255;53.596;9.960;2023-04-05T13:56:49;5.35;;;3.20;;
14342;SDS011;7255;53.596;9.960;2023-04-05T13:59:16;3.37;;;3.08;;
14342;SDS011;7255;53.596;9.960;2023-04-05T14:01:43;3.50;;;2.87;;
14342;SDS011;7255;53.596;9.960;2023-04-05T14:04:09;5.00;;;3.33;;
14342;SDS011;7255;53.596;9.960;2023-04-05T14:06:36;5.68;;;4.15;;
14342;SDS011;7255;53.596;9.960;2023-04-05T14:09:04;4.93;;;3.85;;
14342;SDS011;7255;53.596;9.960;2023-04-05T14:11:30;4.18;;;3.80;;
14342;SDS011;7255;53.596;9.960;2023-04-05T14:13:57;4.35;;;3.90;;
14342;SDS011;7255;53.596;9.960;2023-04-05T14:16:23;4.60;;;4.10;;
14342;SDS011;7255;53.596;9.960;2023-04-05T14:18:50;4.60;;;3.90;;
14342;SDS011;7255;53.596;9.960;2023-04-05T14:21:16;4.85;;;4.00;;
14342;SDS011;7255;53.596;9.960;2023-04-05T14:23:43;6.30;;;3.75;;
14342;SDS011;7255;53.596;9.960;2023-04-05T14:26:10;5.72;;;3.87;;
14342;SDS011;7255;53.596;9.960;2023-04-05T14:28:37;4.28;;;3.58;;
14342;SDS011;7255;53.596;9.960;2023-04-05T14:31:03;5.95;;;4.35;;
14342;SDS011;7255;53.596;9.960;2023-04-05T14:33:29;4.90;;;4.00;;
14342;SDS011;7255;53.596;9.960;2023-04-05T14:35:56;5.47;;;3.97;;
14342;SDS011;7255;53.596;9.960;2023-04-05T14:38:22;4.70;;;3.70;;
14342;SDS011;7255;53.596;9.960;2023-04-05T14:40:48;3.55;;;3.28;;
14342;SDS011;7255;53.596;9.960;2023-04-05T14:43:16;4.22;;;3.70;;
14342;SDS011;7255;53.596;9.960;2023-04-05T14:45:42;4.10;;;3.70;;
14342;SDS011;7255;53.596;9.960;2023-04-05T14:48:09;5.43;;;3.65;;
14342;SDS011;7255;53.596;9.960;2023-04-05T14:50:35;3.90;;;2.78;;
14342;SDS011;7255;53.596;9.960;2023-04-05T14:53:02;3.95;;;2.67;;
14342;SDS011;7255;53.596;9.960;2023-04-05T14:55:28;5.70;;;2.67;;
14342;SDS011;7255;53.596;9.960;2023-04-05T14:57:55;4.30;;;3.03;;
14342;SDS011;7255;53.596;9.960;2023-04-05T15:00:22;3.30;;;2.97;;
14342;SDS011;7255;53.596;9.960;2023-04-05T15:02:49;3.30;;;3.00;;